Skykomish, WA

5:15 AM PDT on September 22, 2014 (GMT -0700)
Grotto | Change Station
CLOSE
Current Station
Personal Weather Station
Location: Baring, WA
Elevation: 873 ft
Nearby Weather Stations

Elev 873 ft 47.74 °N, 121.42 °W | Updated 55 seconds ago

Partly Cloudy
Partly Cloudy
57.6 °F
Feels Like 57.6 °F
N
1.6
Wind Variable Wind from South
Gusts 2.2 mph

Today
High -- | Low -- °F
--% Chance of Precip.
Yesterday
High -- | Low -- °F
Precip. -- in
6:52 AM 7:02 PM
Waning Crescent, 3% visible
Pressure 29.98 in
Visibility 1.0 miles
Clouds Overcast 2000 ft
Dew Point 57 °F
Humidity 97%
Rainfall 0.00 in
Snow Depth 0 in , 0 in , 0 in
UV 0 out of 12
Pollen 1.40 out of 12
PM2.5 Good
Flu Activity Not available.
METAR KRNT 221153Z AUTO 00000KT 1SM HZ OVC020 17/14 A2996 RMK AO2 SLP151 T01720144 10178 20172 51003

More Conditions Fewer Conditions

Pressure 29.98 in
Visibility 1.0 miles
Clouds Overcast 2000 ft
Dew Point 57 °F
Humidity 97%
Rainfall 0.00 in
Snow Depth 0 in , 0 in , 0 in
UV 0 out of 12
Pollen 1.40 out of 12
PM2.5 Good
Flu Activity Not available.
METAR KRNT 221153Z AUTO 00000KT 1SM HZ OVC020 17/14 A2996 RMK AO2 SLP151 T01720144 10178 20172 51003

More Conditions Fewer Conditions

10-Day Weather Forecast

Almanac

Astronomy

Sep. 22, 2014 Rise Set
Actual Time 6:52 AM PDT 7:02 PM PDT
Civil Twilight 6:21 AM PDT 7:33 PM PDT
Nautical Twilight 5:44 AM PDT 8:09 PM PDT
Astronomical Twilight 5:07 AM PDT 8:46 PM PDT
Moon 5:21 AM PDT 6:15 PM PDT
Length of Visible Light 13h 12m
Length of Day
12h 10m
Tomorrow will be 3m 24s shorter.
Waning Crescent, 3% of the Moon is Illuminated
Today
Waning Crescent
Sep 24
New
Oct 1
First Quarter
Oct 8
Full
Oct 15
Last Quarter

Today's Extremes

State Highs State Lows

Community

WunderPhotos

Upload Photos

1,755,417 photos uploaded!

WunderBlogs® & News

Nearby

Air Quality

  Air Quality AQ Index Pollutant
Yesterday Good
OZONE
Yesterday Good
PM2.5
Current Good
PM2.5
Monday Good
OZONE
Monday Good
PM2.5
Tuesday Good
OZONE
Tuesday Good
PM2.5

Snow Depth

Station Depth Elevation
Dungeness 0 in 4100 ft
Touchet 0 in 5530 ft
Swift Creek 0 in 3770 ft
Harts Pass 0 in 6500 ft
Wells Creek 0 in 4200 ft

Earthquake Activity

City Distance Mag. Time & Date
No recent earthquake activity has been reported nearby.
Minimum magnitude displayed is 2.5.

Coastal Water Temperatures

Place Temperature
No Stations Reporting

Nearby Weather Stations